Back to Top

Language: 

My Weather Underground Personal Weather Station Historical Data with Graphs...

Delerius Weather Station Historical Data
Daily Summary for February 13, 2017 Units:  Both    English   Metric
« Previous Day
Next Day »
Daily Weekly Monthly Yearly Custom
  High: Low: Average:
Temperature: 45.0 °F /  7.2 °C 37.2 °F /  2.9 °C 39.4 °F /  4.1 °C
Dew Point: 41.4 °F /  5.2 °C 35.6 °F /  2 °C 37.6 °F /  3.1 °C
Humidity: 97 % 86 % 93 %
Wind Speed: 9.0 mph /  14.5 km/h - 5.6 mph /  9 km/h
Wind Gust: 20.0 mph /  32.2 km/h - -
Wind:- - ENE
Pressure: 30.38 in /  1028.7 hPa 30.28 in /  1025.3 hPa -
Precipitation: 0.00 in /  0 mm    
Historical Graphs
 
 
Tabular Data for February 13, 2017
Time Temperature Dew Point Pressure Wind Wind Speed Wind Gust Humidity Rainfall Rate (Hourly) solar Conditions
00:05 37.8 °F /  3.2 °C 36.5 °F /  2.5 °C 30.37 in /  1028.3 hPa ENE 7.0 mph /  11.3 km/h 8.0 mph /  12.9 km/h 95 % 0.00 in /  0 mm 0 W/m2
00:15 37.8 °F /  3.2 °C 36.5 °F /  2.5 °C 30.37 in /  1028.3 hPa East 6.0 mph /  9.7 km/h 7.0 mph /  11.3 km/h 95 % 0.00 in /  0 mm 0 W/m2
00:25 37.8 °F /  3.2 °C 36.5 °F /  2.5 °C 30.36 in /  1028 hPa South 6.0 mph /  9.7 km/h 7.0 mph /  11.3 km/h 95 % 0.00 in /  0 mm 0 W/m2
00:30 37.7 °F /  3.2 °C 36.4 °F /  2.4 °C 30.36 in /  1028 hPa NE 6.0 mph /  9.7 km/h 7.0 mph /  11.3 km/h 95 % 0.00 in /  0 mm 0 W/m2
00:35 37.8 °F /  3.2 °C 36.5 °F /  2.5 °C 30.36 in /  1028 hPa SE 7.0 mph /  11.3 km/h 7.0 mph /  11.3 km/h 95 % 0.00 in /  0 mm 0 W/m2
00:45 37.7 °F /  3.2 °C 36.4 °F /  2.4 °C 30.37 in /  1028.3 hPa East 7.0 mph /  11.3 km/h 7.0 mph /  11.3 km/h 95 % 0.00 in /  0 mm 0 W/m2
00:50 37.7 °F /  3.2 °C 36.4 °F /  2.4 °C 30.37 in /  1028.3 hPa ESE 6.0 mph /  9.7 km/h 6.0 mph /  9.7 km/h 95 % 0.00 in /  0 mm 0 W/m2
00:55 37.7 °F /  3.2 °C 36.4 °F /  2.4 °C 30.37 in /  1028.3 hPa ENE 5.0 mph /  8 km/h 6.0 mph /  9.7 km/h 95 % 0.00 in /  0 mm 0 W/m2
01:00 37.7 °F /  3.2 °C 36.4 °F /  2.4 °C 30.37 in /  1028.3 hPa ENE 4.0 mph /  6.4 km/h 4.0 mph /  6.4 km/h 95 % 0.00 in /  0 mm 0 W/m2
01:10 37.6 °F /  3.1 °C 36.3 °F /  2.4 °C 30.38 in /  1028.7 hPa East 3.0 mph /  4.8 km/h 3.0 mph /  4.8 km/h 95 % 0.00 in /  0 mm 0 W/m2
01:20 37.7 °F /  3.2 °C 36.4 °F /  2.4 °C 30.38 in /  1028.7 hPa ENE 4.0 mph /  6.4 km/h 20.0 mph /  32.2 km/h 95 % 0.00 in /  0 mm 0 W/m2
01:25 37.7 °F /  3.2 °C 36.4 °F /  2.4 °C 30.38 in /  1028.7 hPa ENE 5.0 mph /  8 km/h 20.0 mph /  32.2 km/h 95 % 0.00 in /  0 mm 0 W/m2
01:35 37.7 °F /  3.2 °C 36.4 °F /  2.4 °C 30.38 in /  1028.7 hPa ENE 5.0 mph /  8 km/h 6.0 mph /  9.7 km/h 95 % 0.00 in /  0 mm 0 W/m2
01:40 37.7 °F /  3.2 °C 36.7 °F /  2.6 °C 30.38 in /  1028.7 hPa East 4.0 mph /  6.4 km/h 20.0 mph /  32.2 km/h 96 % 0.00 in /  0 mm 0 W/m2
01:45 37.7 °F /  3.2 °C 36.4 °F /  2.4 °C 30.37 in /  1028.3 hPa ENE 5.0 mph /  8 km/h 20.0 mph /  32.2 km/h 95 % 0.00 in /  0 mm 0 W/m2
01:50 37.7 °F /  3.2 °C 36.4 °F /  2.4 °C 30.37 in /  1028.3 hPa NE 6.0 mph /  9.7 km/h 20.0 mph /  32.2 km/h 95 % 0.00 in /  0 mm 0 W/m2
01:55 37.7 °F /  3.2 °C 36.4 °F /  2.4 °C 30.37 in /  1028.3 hPa NE 6.0 mph /  9.7 km/h 20.0 mph /  32.2 km/h 95 % 0.00 in /  0 mm 0 W/m2
02:05 37.8 °F /  3.2 °C 36.8 °F /  2.7 °C 30.37 in /  1028.3 hPa ENE 6.0 mph /  9.7 km/h 7.0 mph /  11.3 km/h 96 % 0.00 in /  0 mm 0 W/m2
02:10 37.8 °F /  3.2 °C 36.8 °F /  2.7 °C 30.37 in /  1028.3 hPa East 6.0 mph /  9.7 km/h 20.0 mph /  32.2 km/h 96 % 0.00 in /  0 mm 0 W/m2
02:15 37.8 °F /  3.2 °C 36.8 °F /  2.7 °C 30.37 in /  1028.3 hPa ENE 6.0 mph /  9.7 km/h 20.0 mph /  32.2 km/h 96 % 0.00 in /  0 mm 0 W/m2
02:25 37.8 °F /  3.2 °C 36.8 °F /  2.7 °C 30.36 in /  1028 hPa East 7.0 mph /  11.3 km/h 20.0 mph /  32.2 km/h 96 % 0.00 in /  0 mm 0 W/m2
02:30 37.8 °F /  3.2 °C 36.8 °F /  2.7 °C 30.36 in /  1028 hPa ENE 7.0 mph /  11.3 km/h 20.0 mph /  32.2 km/h 96 % 0.00 in /  0 mm 0 W/m2
02:35 37.8 °F /  3.2 °C 36.8 °F /  2.7 °C 30.36 in /  1028 hPa ESE 5.0 mph /  8 km/h 20.0 mph /  32.2 km/h 96 % 0.00 in /  0 mm 0 W/m2
02:40 37.8 °F /  3.2 °C 36.8 °F /  2.7 °C 30.36 in /  1028 hPa ENE 5.0 mph /  8 km/h 5.0 mph /  8 km/h 96 % 0.00 in /  0 mm 0 W/m2
02:50 37.7 °F /  3.2 °C 36.7 °F /  2.6 °C 30.35 in /  1027.7 hPa ENE 7.0 mph /  11.3 km/h 7.0 mph /  11.3 km/h 96 % 0.00 in /  0 mm 0 W/m2
02:55 37.7 °F /  3.2 °C 36.7 °F /  2.6 °C 30.35 in /  1027.7 hPa NE 7.0 mph /  11.3 km/h 20.0 mph /  32.2 km/h 96 % 0.00 in /  0 mm 0 W/m2
03:00 37.7 °F /  3.2 °C 36.7 °F /  2.6 °C 30.35 in /  1027.7 hPa ENE 6.0 mph /  9.7 km/h 20.0 mph /  32.2 km/h 96 % 0.00 in /  0 mm 0 W/m2
03:10 37.7 °F /  3.2 °C 36.7 °F /  2.6 °C 30.35 in /  1027.7 hPa ENE 6.0 mph /  9.7 km/h 6.0 mph /  9.7 km/h 96 % 0.00 in /  0 mm 0 W/m2
03:20 37.6 °F /  3.1 °C 36.6 °F /  2.6 °C 30.35 in /  1027.7 hPa ESE 4.0 mph /  6.4 km/h 20.0 mph /  32.2 km/h 96 % 0.00 in /  0 mm 0 W/m2
03:25 37.6 °F /  3.1 °C 36.6 °F /  2.6 °C 30.35 in /  1027.7 hPa East 5.0 mph /  8 km/h 20.0 mph /  32.2 km/h 96 % 0.00 in /  0 mm 0 W/m2
03:30 37.5 °F /  3.1 °C 36.5 °F /  2.5 °C 30.35 in /  1027.7 hPa East 7.0 mph /  11.3 km/h 20.0 mph /  32.2 km/h 96 % 0.00 in /  0 mm 0 W/m2
03:35 37.5 °F /  3.1 °C 36.5 °F /  2.5 °C 30.35 in /  1027.7 hPa East 7.0 mph /  11.3 km/h 20.0 mph /  32.2 km/h 96 % 0.00 in /  0 mm 0 W/m2
03:40 37.4 °F /  3 °C 36.4 °F /  2.4 °C 30.35 in /  1027.7 hPa NE 7.0 mph /  11.3 km/h 7.0 mph /  11.3 km/h 96 % 0.00 in /  0 mm 0 W/m2
03:50 37.4 °F /  3 °C 36.4 °F /  2.4 °C 30.35 in /  1027.7 hPa ESE 7.0 mph /  11.3 km/h 20.0 mph /  32.2 km/h 96 % 0.00 in /  0 mm 0 W/m2
03:55 37.4 °F /  3 °C 36.4 °F /  2.4 °C 30.35 in /  1027.7 hPa East 7.0 mph /  11.3 km/h 20.0 mph /  32.2 km/h 96 % 0.00 in /  0 mm 0 W/m2
04:00 37.4 °F /  3 °C 36.4 °F /  2.4 °C 30.35 in /  1027.7 hPa ESE 7.0 mph /  11.3 km/h 7.0 mph /  11.3 km/h 96 % 0.00 in /  0 mm 0 W/m2
04:10 37.4 °F /  3 °C 36.4 °F /  2.4 °C 30.35 in /  1027.7 hPa ESE 8.0 mph /  12.9 km/h 20.0 mph /  32.2 km/h 96 % 0.00 in /  0 mm 0 W/m2
04:15 37.3 °F /  2.9 °C 36.3 °F /  2.4 °C 30.35 in /  1027.7 hPa East 8.0 mph /  12.9 km/h 20.0 mph /  32.2 km/h 96 % 0.00 in /  0 mm 0 W/m2
04:20 37.3 °F /  2.9 °C 36.3 °F /  2.4 °C 30.34 in /  1027.3 hPa ENE 7.0 mph /  11.3 km/h 20.0 mph /  32.2 km/h 96 % 0.00 in /  0 mm 0 W/m2
04:25 37.3 °F /  2.9 °C 36.3 °F /  2.4 °C 30.35 in /  1027.7 hPa NE 6.0 mph /  9.7 km/h 20.0 mph /  32.2 km/h 96 % 0.00 in /  0 mm 0 W/m2
04:35 37.3 °F /  2.9 °C 36.3 °F /  2.4 °C 30.35 in /  1027.7 hPa ENE 3.0 mph /  4.8 km/h 20.0 mph /  32.2 km/h 96 % 0.00 in /  0 mm 0 W/m2
04:40 37.3 °F /  2.9 °C 36.5 °F /  2.5 °C 30.35 in /  1027.7 hPa ENE 4.0 mph /  6.4 km/h 20.0 mph /  32.2 km/h 97 % 0.00 in /  0 mm 0 W/m2
04:45 37.3 °F /  2.9 °C 36.5 °F /  2.5 °C 30.35 in /  1027.7 hPa NE 5.0 mph /  8 km/h 20.0 mph /  32.2 km/h 97 % 0.00 in /  0 mm 0 W/m2
04:50 37.2 °F /  2.9 °C 36.4 °F /  2.4 °C 30.35 in /  1027.7 hPa ESE 6.0 mph /  9.7 km/h 6.0 mph /  9.7 km/h 97 % 0.00 in /  0 mm 0 W/m2
04:55 37.2 °F /  2.9 °C 36.4 °F /  2.4 °C 30.35 in /  1027.7 hPa ENE 7.0 mph /  11.3 km/h 7.0 mph /  11.3 km/h 97 % 0.00 in /  0 mm 0 W/m2
05:05 37.2 °F /  2.9 °C 36.4 °F /  2.4 °C 30.35 in /  1027.7 hPa ENE 6.0 mph /  9.7 km/h 20.0 mph /  32.2 km/h 97 % 0.00 in /  0 mm 0 W/m2
05:10 37.2 °F /  2.9 °C 36.4 °F /  2.4 °C 30.35 in /  1027.7 hPa ENE 6.0 mph /  9.7 km/h 20.0 mph /  32.2 km/h 97 % 0.00 in /  0 mm 0 W/m2
05:15 37.2 °F /  2.9 °C 36.4 °F /  2.4 °C 30.35 in /  1027.7 hPa NE 6.0 mph /  9.7 km/h 20.0 mph /  32.2 km/h 97 % 0.00 in /  0 mm 0 W/m2
05:20 37.2 °F /  2.9 °C 36.4 °F /  2.4 °C 30.36 in /  1028 hPa NE 6.0 mph /  9.7 km/h 20.0 mph /  32.2 km/h 97 % 0.00 in /  0 mm 0 W/m2
05:25 37.2 °F /  2.9 °C 36.4 °F /  2.4 °C 30.35 in /  1027.7 hPa ENE 6.0 mph /  9.7 km/h 20.0 mph /  32.2 km/h 97 % 0.00 in /  0 mm 0 W/m2
05:30 37.2 °F /  2.9 °C 36.4 °F /  2.4 °C 30.35 in /  1027.7 hPa East 6.0 mph /  9.7 km/h 20.0 mph /  32.2 km/h 97 % 0.00 in /  0 mm 0 W/m2
05:40 37.2 °F /  2.9 °C 36.4 °F /  2.4 °C 30.35 in /  1027.7 hPa East 5.0 mph /  8 km/h 5.0 mph /  8 km/h 97 % 0.00 in /  0 mm 0 W/m2
05:45 37.2 °F /  2.9 °C 36.4 °F /  2.4 °C 30.35 in /  1027.7 hPa East 5.0 mph /  8 km/h 7.0 mph /  11.3 km/h 97 % 0.00 in /  0 mm 0 W/m2
05:50 37.2 °F /  2.9 °C 36.4 °F /  2.4 °C 30.35 in /  1027.7 hPa ENE 6.0 mph /  9.7 km/h 20.0 mph /  32.2 km/h 97 % 0.00 in /  0 mm 0 W/m2
05:55 37.3 °F /  2.9 °C 36.5 °F /  2.5 °C 30.35 in /  1027.7 hPa ENE 6.0 mph /  9.7 km/h 20.0 mph /  32.2 km/h 97 % 0.00 in /  0 mm 0 W/m2
06:05 37.3 °F /  2.9 °C 36.5 °F /  2.5 °C 30.35 in /  1027.7 hPa East 5.0 mph /  8 km/h 20.0 mph /  32.2 km/h 97 % 0.00 in /  0 mm 0 W/m2
06:10 37.3 °F /  2.9 °C 36.5 °F /  2.5 °C 30.35 in /  1027.7 hPa ENE 6.0 mph /  9.7 km/h 6.0 mph /  9.7 km/h 97 % 0.00 in /  0 mm 0 W/m2
06:15 37.3 °F /  2.9 °C 36.5 °F /  2.5 °C 30.35 in /  1027.7 hPa NE 5.0 mph /  8 km/h 7.0 mph /  11.3 km/h 97 % 0.00 in /  0 mm 0 W/m2
06:20 37.4 °F /  3 °C 36.6 °F /  2.6 °C 30.35 in /  1027.7 hPa NE 6.0 mph /  9.7 km/h 20.0 mph /  32.2 km/h 97 % 0.00 in /  0 mm 0 W/m2
06:30 37.4 °F /  3 °C 36.6 °F /  2.6 °C 30.35 in /  1027.7 hPa ENE 5.0 mph /  8 km/h 20.0 mph /  32.2 km/h 97 % 0.00 in /  0 mm 0 W/m2
06:35 37.5 °F /  3.1 °C 36.7 °F /  2.6 °C 30.35 in /  1027.7 hPa ENE 5.0 mph /  8 km/h 20.0 mph /  32.2 km/h 97 % 0.00 in /  0 mm 0 W/m2
06:40 37.5 °F /  3.1 °C 36.7 °F /  2.6 °C 30.35 in /  1027.7 hPa ENE 6.0 mph /  9.7 km/h 20.0 mph /  32.2 km/h 97 % 0.00 in /  0 mm 0 W/m2
06:45 37.5 °F /  3.1 °C 36.7 °F /  2.6 °C 30.36 in /  1028 hPa NE 7.0 mph /  11.3 km/h 20.0 mph /  32.2 km/h 97 % 0.00 in /  0 mm 0 W/m2
06:55 37.6 °F /  3.1 °C 36.8 °F /  2.7 °C 30.36 in /  1028 hPa East 5.0 mph /  8 km/h 20.0 mph /  32.2 km/h 97 % 0.00 in /  0 mm 0 W/m2
07:00 37.6 °F /  3.1 °C 36.8 °F /  2.7 °C 30.36 in /  1028 hPa ENE 4.0 mph /  6.4 km/h 20.0 mph /  32.2 km/h 97 % 0.00 in /  0 mm 0 W/m2
07:10 37.6 °F /  3.1 °C 36.8 °F /  2.7 °C 30.35 in /  1027.7 hPa ENE 5.0 mph /  8 km/h 5.0 mph /  8 km/h 97 % 0.00 in /  0 mm 0 W/m2
07:15 37.6 °F /  3.1 °C 36.8 °F /  2.7 °C 30.35 in /  1027.7 hPa East 6.0 mph /  9.7 km/h 7.0 mph /  11.3 km/h 97 % 0.00 in /  0 mm 0 W/m2
07:20 37.7 °F /  3.2 °C 36.9 °F /  2.7 °C 30.35 in /  1027.7 hPa ENE 6.0 mph /  9.7 km/h 6.0 mph /  9.7 km/h 97 % 0.00 in /  0 mm 0 W/m2
07:30 37.7 °F /  3.2 °C 36.9 °F /  2.7 °C 30.35 in /  1027.7 hPa SE 5.0 mph /  8 km/h 5.0 mph /  8 km/h 97 % 0.00 in /  0 mm 0 W/m2
07:35 37.8 °F /  3.2 °C 37.0 °F /  2.8 °C 30.35 in /  1027.7 hPa ESE 4.0 mph /  6.4 km/h 20.0 mph /  32.2 km/h 97 % 0.00 in /  0 mm 0 W/m2
07:40 37.8 °F /  3.2 °C 37.0 °F /  2.8 °C 30.35 in /  1027.7 hPa ENE 4.0 mph /  6.4 km/h 20.0 mph /  32.2 km/h 97 % 0.00 in /  0 mm 0 W/m2
07:45 37.8 °F /  3.2 °C 37.0 °F /  2.8 °C 30.35 in /  1027.7 hPa ENE 5.0 mph /  8 km/h 20.0 mph /  32.2 km/h 97 % 0.00 in /  0 mm 0 W/m2
07:55 37.9 °F /  3.3 °C 37.1 °F /  2.8 °C 30.35 in /  1027.7 hPa East 5.0 mph /  8 km/h 20.0 mph /  32.2 km/h 97 % 0.00 in /  0 mm 5 W/m2
08:00 37.9 °F /  3.3 °C 37.1 °F /  2.8 °C 30.35 in /  1027.7 hPa ENE 5.0 mph /  8 km/h 20.0 mph /  32.2 km/h 97 % 0.00 in /  0 mm 7 W/m2
08:10 38.0 °F /  3.3 °C 37.2 °F /  2.9 °C 30.36 in /  1028 hPa ENE 5.0 mph /  8 km/h 5.0 mph /  8 km/h 97 % 0.00 in /  0 mm 9 W/m2
08:15 38.1 °F /  3.4 °C 37.3 °F /  2.9 °C 30.36 in /  1028 hPa ENE 5.0 mph /  8 km/h 20.0 mph /  32.2 km/h 97 % 0.00 in /  0 mm 12 W/m2
08:25 38.1 °F /  3.4 °C 37.3 °F /  2.9 °C 30.36 in /  1028 hPa East 5.0 mph /  8 km/h 20.0 mph /  32.2 km/h 97 % 0.00 in /  0 mm 14 W/m2
08:30 38.1 °F /  3.4 °C 37.3 °F /  2.9 °C 30.36 in /  1028 hPa NE 4.0 mph /  6.4 km/h 20.0 mph /  32.2 km/h 97 % 0.00 in /  0 mm 12 W/m2
08:35 38.2 °F /  3.4 °C 37.4 °F /  3 °C 30.36 in /  1028 hPa NE 3.0 mph /  4.8 km/h 20.0 mph /  32.2 km/h 97 % 0.00 in /  0 mm 14 W/m2
08:45 38.3 °F /  3.5 °C 37.5 °F /  3.1 °C 30.36 in /  1028 hPa ESE 4.0 mph /  6.4 km/h 20.0 mph /  32.2 km/h 97 % 0.00 in /  0 mm 25 W/m2
08:50 38.3 °F /  3.5 °C 37.5 °F /  3.1 °C 30.36 in /  1028 hPa East 5.0 mph /  8 km/h 20.0 mph /  32.2 km/h 97 % 0.00 in /  0 mm 19 W/m2
08:55 38.3 °F /  3.5 °C 37.5 °F /  3.1 °C 30.35 in /  1027.7 hPa ENE 5.0 mph /  8 km/h 20.0 mph /  32.2 km/h 97 % 0.00 in /  0 mm 18 W/m2
09:00 38.4 °F /  3.6 °C 37.6 °F /  3.1 °C 30.36 in /  1028 hPa ENE 6.0 mph /  9.7 km/h 6.0 mph /  9.7 km/h 97 % 0.00 in /  0 mm 25 W/m2
09:10 38.5 °F /  3.6 °C 37.7 °F /  3.2 °C 30.36 in /  1028 hPa ENE 5.0 mph /  8 km/h 5.0 mph /  8 km/h 97 % 0.00 in /  0 mm 28 W/m2
09:15 38.5 °F /  3.6 °C 37.7 °F /  3.2 °C 30.36 in /  1028 hPa East 5.0 mph /  8 km/h 7.0 mph /  11.3 km/h 97 % 0.00 in /  0 mm 33 W/m2
09:20 38.5 °F /  3.6 °C 37.7 °F /  3.2 °C 30.36 in /  1028 hPa ENE 6.0 mph /  9.7 km/h 20.0 mph /  32.2 km/h 97 % 0.00 in /  0 mm 23 W/m2
09:30 38.6 °F /  3.7 °C 37.8 °F /  3.2 °C 30.36 in /  1028 hPa NE 6.0 mph /  9.7 km/h 6.0 mph /  9.7 km/h 97 % 0.00 in /  0 mm 33 W/m2
09:35 38.6 °F /  3.7 °C 37.6 °F /  3.1 °C 30.35 in /  1027.7 hPa ENE 6.0 mph /  9.7 km/h 20.0 mph /  32.2 km/h 96 % 0.00 in /  0 mm 39 W/m2
09:40 38.7 °F /  3.7 °C 37.7 °F /  3.2 °C 30.36 in /  1028 hPa NE 5.0 mph /  8 km/h 5.0 mph /  8 km/h 96 % 0.00 in /  0 mm 54 W/m2
09:45 38.7 °F /  3.7 °C 37.7 °F /  3.2 °C 30.36 in /  1028 hPa ENE 4.0 mph /  6.4 km/h 8.0 mph /  12.9 km/h 96 % 0.00 in /  0 mm 46 W/m2
09:50 38.7 °F /  3.7 °C 37.7 °F /  3.2 °C 30.36 in /  1028 hPa NE 5.0 mph /  8 km/h 20.0 mph /  32.2 km/h 96 % 0.00 in /  0 mm 63 W/m2
10:00 38.9 °F /  3.8 °C 37.9 °F /  3.3 °C 30.36 in /  1028 hPa NE 5.0 mph /  8 km/h 20.0 mph /  32.2 km/h 96 % 0.00 in /  0 mm 47 W/m2
10:05 38.9 °F /  3.8 °C 37.9 °F /  3.3 °C 30.36 in /  1028 hPa NE 5.0 mph /  8 km/h 20.0 mph /  32.2 km/h 96 % 0.00 in /  0 mm 51 W/m2
10:10 39.0 °F /  3.9 °C 38.0 °F /  3.3 °C 30.36 in /  1028 hPa ENE 5.0 mph /  8 km/h 20.0 mph /  32.2 km/h 96 % 0.00 in /  0 mm 84 W/m2
10:20 39.3 °F /  4.1 °C 38.3 °F /  3.5 °C 30.36 in /  1028 hPa ENE 5.0 mph /  8 km/h 20.0 mph /  32.2 km/h 96 % 0.00 in /  0 mm 105 W/m2
10:25 39.4 °F /  4.1 °C 38.4 °F /  3.6 °C 30.36 in /  1028 hPa ENE 4.0 mph /  6.4 km/h 20.0 mph /  32.2 km/h 96 % 0.00 in /  0 mm 102 W/m2
10:30 39.5 °F /  4.2 °C 38.5 °F /  3.6 °C 30.36 in /  1028 hPa NE 6.0 mph /  9.7 km/h 20.0 mph /  32.2 km/h 96 % 0.00 in /  0 mm 139 W/m2
10:40 39.8 °F /  4.3 °C 38.5 °F /  3.6 °C 30.36 in /  1028 hPa NE 7.0 mph /  11.3 km/h 7.0 mph /  11.3 km/h 95 % 0.00 in /  0 mm 102 W/m2
10:45 39.9 °F /  4.4 °C 38.6 °F /  3.7 °C 30.36 in /  1028 hPa East 6.0 mph /  9.7 km/h 10.0 mph /  16.1 km/h 95 % 0.00 in /  0 mm 86 W/m2
10:50 39.9 °F /  4.4 °C 38.6 °F /  3.7 °C 30.36 in /  1028 hPa ENE 7.0 mph /  11.3 km/h 20.0 mph /  32.2 km/h 95 % 0.00 in /  0 mm 90 W/m2
10:55 40.0 °F /  4.4 °C 38.7 °F /  3.7 °C 30.36 in /  1028 hPa NNE 7.0 mph /  11.3 km/h 20.0 mph /  32.2 km/h 95 % 0.00 in /  0 mm 107 W/m2
11:05 40.2 °F /  4.6 °C 38.9 °F /  3.8 °C 30.35 in /  1027.7 hPa ENE 6.0 mph /  9.7 km/h 20.0 mph /  32.2 km/h 95 % 0.00 in /  0 mm 105 W/m2
11:10 40.2 °F /  4.6 °C 38.9 °F /  3.8 °C 30.35 in /  1027.7 hPa East 6.0 mph /  9.7 km/h 20.0 mph /  32.2 km/h 95 % 0.00 in /  0 mm 90 W/m2
11:15 40.3 °F /  4.6 °C 38.7 °F /  3.7 °C 30.35 in /  1027.7 hPa East 7.0 mph /  11.3 km/h 20.0 mph /  32.2 km/h 94 % 0.00 in /  0 mm 95 W/m2
11:20 40.5 °F /  4.7 °C 38.9 °F /  3.8 °C 30.35 in /  1027.7 hPa NE 8.0 mph /  12.9 km/h 8.0 mph /  12.9 km/h 94 % 0.00 in /  0 mm 107 W/m2
11:25 40.6 °F /  4.8 °C 39.0 °F /  3.9 °C 30.35 in /  1027.7 hPa NE 7.0 mph /  11.3 km/h 9.0 mph /  14.5 km/h 94 % 0.00 in /  0 mm 107 W/m2
11:35 40.7 °F /  4.8 °C 39.1 °F /  3.9 °C 30.35 in /  1027.7 hPa NE 7.0 mph /  11.3 km/h 20.0 mph /  32.2 km/h 94 % 0.00 in /  0 mm 84 W/m2
11:40 40.8 °F /  4.9 °C 39.2 °F /  4 °C 30.34 in /  1027.3 hPa East 6.0 mph /  9.7 km/h 6.0 mph /  9.7 km/h 94 % 0.00 in /  0 mm 116 W/m2
11:45 40.9 °F /  4.9 °C 39.3 °F /  4.1 °C 30.34 in /  1027.3 hPa NE 7.0 mph /  11.3 km/h 10.0 mph /  16.1 km/h 94 % 0.00 in /  0 mm 95 W/m2
11:55 41.1 °F /  5.1 °C 39.5 °F /  4.2 °C 30.34 in /  1027.3 hPa East 7.0 mph /  11.3 km/h 20.0 mph /  32.2 km/h 94 % 0.00 in /  0 mm 109 W/m2
12:00 41.2 °F /  5.1 °C 39.6 °F /  4.2 °C 30.34 in /  1027.3 hPa ENE 6.0 mph /  9.7 km/h 20.0 mph /  32.2 km/h 94 % 0.00 in /  0 mm 120 W/m2
12:05 41.3 °F /  5.2 °C 39.4 °F /  4.1 °C 30.33 in /  1027 hPa ENE 7.0 mph /  11.3 km/h 20.0 mph /  32.2 km/h 93 % 0.00 in /  0 mm 151 W/m2
12:15 41.4 °F /  5.2 °C 39.5 °F /  4.2 °C 30.33 in /  1027 hPa ENE 7.0 mph /  11.3 km/h 20.0 mph /  32.2 km/h 93 % 0.00 in /  0 mm 151 W/m2
12:20 41.6 °F /  5.3 °C 39.7 °F /  4.3 °C 30.33 in /  1027 hPa East 7.0 mph /  11.3 km/h 20.0 mph /  32.2 km/h 93 % 0.00 in /  0 mm 132 W/m2
12:25 41.7 °F /  5.4 °C 39.8 °F /  4.3 °C 30.33 in /  1027 hPa NE 8.0 mph /  12.9 km/h 20.0 mph /  32.2 km/h 93 % 0.00 in /  0 mm 142 W/m2
12:35 42.1 °F /  5.6 °C 39.9 °F /  4.4 °C 30.33 in /  1027 hPa East 5.0 mph /  8 km/h 20.0 mph /  32.2 km/h 92 % 0.00 in /  0 mm 91 W/m2
12:40 42.3 °F /  5.7 °C 40.1 °F /  4.5 °C 30.33 in /  1027 hPa ENE 5.0 mph /  8 km/h 5.0 mph /  8 km/h 92 % 0.00 in /  0 mm 102 W/m2
12:45 42.4 °F /  5.8 °C 40.2 °F /  4.6 °C 30.33 in /  1027 hPa East 4.0 mph /  6.4 km/h 7.0 mph /  11.3 km/h 92 % 0.00 in /  0 mm 100 W/m2
12:50 42.4 °F /  5.8 °C 40.0 °F /  4.4 °C 30.33 in /  1027 hPa ENE 5.0 mph /  8 km/h 20.0 mph /  32.2 km/h 91 % 0.00 in /  0 mm 121 W/m2
13:00 42.5 °F /  5.8 °C 39.8 °F /  4.3 °C 30.33 in /  1027 hPa East 6.0 mph /  9.7 km/h 6.0 mph /  9.7 km/h 90 % 0.00 in /  0 mm 176 W/m2
13:05 42.7 °F /  5.9 °C 40.0 °F /  4.4 °C 30.33 in /  1027 hPa ENE 6.0 mph /  9.7 km/h 20.0 mph /  32.2 km/h 90 % 0.00 in /  0 mm 158 W/m2
13:10 42.9 °F /  6.1 °C 39.9 °F /  4.4 °C 30.32 in /  1026.6 hPa East 5.0 mph /  8 km/h 5.0 mph /  8 km/h 89 % 0.00 in /  0 mm 162 W/m2
13:15 43.0 °F /  6.1 °C 40.0 °F /  4.4 °C 30.32 in /  1026.6 hPa NNE 5.0 mph /  8 km/h 6.0 mph /  9.7 km/h 89 % 0.00 in /  0 mm 153 W/m2
13:20 43.3 °F /  6.3 °C 40.3 °F /  4.6 °C 30.32 in /  1026.6 hPa ENE 4.0 mph /  6.4 km/h 20.0 mph /  32.2 km/h 89 % 0.00 in /  0 mm 139 W/m2
13:35 43.9 °F /  6.6 °C 40.6 °F /  4.8 °C 30.32 in /  1026.6 hPa ENE 7.0 mph /  11.3 km/h 20.0 mph /  32.2 km/h 88 % 0.00 in /  0 mm 171 W/m2
13:45 44.6 °F /  7 °C 41.0 °F /  5 °C 30.31 in /  1026.3 hPa ENE 6.0 mph /  9.7 km/h 20.0 mph /  32.2 km/h 87 % 0.00 in /  0 mm 348 W/m2
13:50 44.7 °F /  7.1 °C 41.1 °F /  5.1 °C 30.31 in /  1026.3 hPa NE 6.0 mph /  9.7 km/h 20.0 mph /  32.2 km/h 87 % 0.00 in /  0 mm 322 W/m2
13:55 45.0 °F /  7.2 °C 41.4 °F /  5.2 °C 30.31 in /  1026.3 hPa East 5.0 mph /  8 km/h 20.0 mph /  32.2 km/h 87 % 0.00 in /  0 mm 327 W/m2
14:05 44.9 °F /  7.2 °C 41.3 °F /  5.2 °C 30.31 in /  1026.3 hPa ENE 6.0 mph /  9.7 km/h 20.0 mph /  32.2 km/h 87 % 0.00 in /  0 mm 200 W/m2
14:10 44.9 °F /  7.2 °C 41.3 °F /  5.2 °C 30.31 in /  1026.3 hPa East 6.0 mph /  9.7 km/h 20.0 mph /  32.2 km/h 87 % 0.00 in /  0 mm 285 W/m2
14:15 45.0 °F /  7.2 °C 41.1 °F /  5.1 °C 30.31 in /  1026.3 hPa ENE 6.0 mph /  9.7 km/h 20.0 mph /  32.2 km/h 86 % 0.00 in /  0 mm 260 W/m2
14:25 45.0 °F /  7.2 °C 41.1 °F /  5.1 °C 30.30 in /  1026 hPa NE 7.0 mph /  11.3 km/h 20.0 mph /  32.2 km/h 86 % 0.00 in /  0 mm 258 W/m2
14:30 44.9 °F /  7.2 °C 41.0 °F /  5 °C 30.30 in /  1026 hPa ENE 8.0 mph /  12.9 km/h 20.0 mph /  32.2 km/h 86 % 0.00 in /  0 mm 236 W/m2
14:35 44.7 °F /  7.1 °C 40.8 °F /  4.9 °C 30.30 in /  1026 hPa NE 9.0 mph /  14.5 km/h 20.0 mph /  32.2 km/h 86 % 0.00 in /  0 mm 246 W/m2
14:45 44.5 °F /  6.9 °C 40.6 °F /  4.8 °C 30.30 in /  1026 hPa NE 8.0 mph /  12.9 km/h 20.0 mph /  32.2 km/h 86 % 0.00 in /  0 mm 216 W/m2
14:50 44.3 °F /  6.8 °C 40.4 °F /  4.7 °C 30.30 in /  1026 hPa NE 9.0 mph /  14.5 km/h 9.0 mph /  14.5 km/h 86 % 0.00 in /  0 mm 214 W/m2
14:55 44.3 °F /  6.8 °C 40.7 °F /  4.8 °C 30.30 in /  1026 hPa East 8.0 mph /  12.9 km/h 20.0 mph /  32.2 km/h 87 % 0.00 in /  0 mm 213 W/m2
15:05 44.2 °F /  6.8 °C 40.6 °F /  4.8 °C 30.30 in /  1026 hPa ENE 7.0 mph /  11.3 km/h 8.0 mph /  12.9 km/h 87 % 0.00 in /  0 mm 200 W/m2
15:15 43.8 °F /  6.6 °C 40.2 °F /  4.6 °C 30.30 in /  1026 hPa NE 8.0 mph /  12.9 km/h 20.0 mph /  32.2 km/h 87 % 0.00 in /  0 mm 100 W/m2
15:20 43.4 °F /  6.3 °C 39.8 °F /  4.3 °C 30.30 in /  1026 hPa ENE 9.0 mph /  14.5 km/h 9.0 mph /  14.5 km/h 87 % 0.00 in /  0 mm 105 W/m2
15:25 43.2 °F /  6.2 °C 39.9 °F /  4.4 °C 30.29 in /  1025.6 hPa East 9.0 mph /  14.5 km/h 20.0 mph /  32.2 km/h 88 % 0.00 in /  0 mm 65 W/m2
15:30 42.9 °F /  6.1 °C 39.6 °F /  4.2 °C 30.29 in /  1025.6 hPa ENE 8.0 mph /  12.9 km/h 8.0 mph /  12.9 km/h 88 % 0.00 in /  0 mm 76 W/m2
15:40 42.4 °F /  5.8 °C 39.4 °F /  4.1 °C 30.29 in /  1025.6 hPa NE 8.0 mph /  12.9 km/h 8.0 mph /  12.9 km/h 89 % 0.00 in /  0 mm 67 W/m2
15:45 42.2 °F /  5.7 °C 39.2 °F /  4 °C 30.29 in /  1025.6 hPa ESE 8.0 mph /  12.9 km/h 20.0 mph /  32.2 km/h 89 % 0.00 in /  0 mm 32 W/m2
15:50 42.0 °F /  5.6 °C 39.3 °F /  4.1 °C 30.29 in /  1025.6 hPa NNE 8.0 mph /  12.9 km/h 8.0 mph /  12.9 km/h 90 % 0.00 in /  0 mm 32 W/m2
15:55 41.8 °F /  5.4 °C 39.1 °F /  3.9 °C 30.29 in /  1025.6 hPa NE 8.0 mph /  12.9 km/h 10.0 mph /  16.1 km/h 90 % 0.00 in /  0 mm 25 W/m2
16:05 41.4 °F /  5.2 °C 38.7 °F /  3.7 °C 30.29 in /  1025.6 hPa ENE 8.0 mph /  12.9 km/h 20.0 mph /  32.2 km/h 90 % 0.00 in /  0 mm 21 W/m2
16:10 41.1 °F /  5.1 °C 38.4 °F /  3.6 °C 30.29 in /  1025.6 hPa NNE 7.0 mph /  11.3 km/h 20.0 mph /  32.2 km/h 90 % 0.00 in /  0 mm 14 W/m2
16:15 41.0 °F /  5 °C 38.6 °F /  3.7 °C 30.29 in /  1025.6 hPa ENE 7.0 mph /  11.3 km/h 20.0 mph /  32.2 km/h 91 % 0.00 in /  0 mm 14 W/m2
16:20 40.8 °F /  4.9 °C 38.4 °F /  3.6 °C 30.29 in /  1025.6 hPa NE 6.0 mph /  9.7 km/h 20.0 mph /  32.2 km/h 91 % 0.00 in /  0 mm 11 W/m2
16:35 40.5 °F /  4.7 °C 38.1 °F /  3.4 °C 30.30 in /  1026 hPa ENE 6.0 mph /  9.7 km/h 20.0 mph /  32.2 km/h 91 % 0.00 in /  0 mm 7 W/m2
16:40 40.4 °F /  4.7 °C 38.0 °F /  3.3 °C 30.30 in /  1026 hPa NE 5.0 mph /  8 km/h 20.0 mph /  32.2 km/h 91 % 0.00 in /  0 mm 5 W/m2
16:45 40.3 °F /  4.6 °C 37.9 °F /  3.3 °C 30.30 in /  1026 hPa ENE 4.0 mph /  6.4 km/h 20.0 mph /  32.2 km/h 91 % 0.00 in /  0 mm 5 W/m2
16:50 40.2 °F /  4.6 °C 37.8 °F /  3.2 °C 30.30 in /  1026 hPa ENE 5.0 mph /  8 km/h 20.0 mph /  32.2 km/h 91 % 0.00 in /  0 mm 5 W/m2
16:55 40.2 °F /  4.6 °C 38.1 °F /  3.4 °C 30.29 in /  1025.6 hPa NE 5.0 mph /  8 km/h 20.0 mph /  32.2 km/h 92 % 0.00 in /  0 mm 0 W/m2
17:05 40.0 °F /  4.4 °C 37.9 °F /  3.3 °C 30.29 in /  1025.6 hPa East 5.0 mph /  8 km/h 20.0 mph /  32.2 km/h 92 % 0.00 in /  0 mm 0 W/m2
17:10 39.9 °F /  4.4 °C 37.8 °F /  3.2 °C 30.29 in /  1025.6 hPa ENE 6.0 mph /  9.7 km/h 20.0 mph /  32.2 km/h 92 % 0.00 in /  0 mm 0 W/m2
17:15 39.9 °F /  4.4 °C 37.8 °F /  3.2 °C 30.29 in /  1025.6 hPa ENE 6.0 mph /  9.7 km/h 20.0 mph /  32.2 km/h 92 % 0.00 in /  0 mm 0 W/m2
17:25 39.8 °F /  4.3 °C 37.7 °F /  3.2 °C 30.29 in /  1025.6 hPa NE 6.0 mph /  9.7 km/h 20.0 mph /  32.2 km/h 92 % 0.00 in /  0 mm 0 W/m2
17:30 39.7 °F /  4.3 °C 37.6 °F /  3.1 °C 30.29 in /  1025.6 hPa ENE 7.0 mph /  11.3 km/h 20.0 mph /  32.2 km/h 92 % 0.00 in /  0 mm 0 W/m2
17:35 39.7 °F /  4.3 °C 37.6 °F /  3.1 °C 30.29 in /  1025.6 hPa East 6.0 mph /  9.7 km/h 20.0 mph /  32.2 km/h 92 % 0.00 in /  0 mm 0 W/m2
17:40 39.6 °F /  4.2 °C 37.5 °F /  3.1 °C 30.29 in /  1025.6 hPa ENE 5.0 mph /  8 km/h 5.0 mph /  8 km/h 92 % 0.00 in /  0 mm 0 W/m2
17:45 39.6 °F /  4.2 °C 37.5 °F /  3.1 °C 30.29 in /  1025.6 hPa East 5.0 mph /  8 km/h 20.0 mph /  32.2 km/h 92 % 0.00 in /  0 mm 0 W/m2
17:55 39.6 °F /  4.2 °C 37.5 °F /  3.1 °C 30.30 in /  1026 hPa NE 4.0 mph /  6.4 km/h 7.0 mph /  11.3 km/h 92 % 0.00 in /  0 mm 0 W/m2
18:00 39.5 °F /  4.2 °C 37.4 °F /  3 °C 30.30 in /  1026 hPa East 4.0 mph /  6.4 km/h 20.0 mph /  32.2 km/h 92 % 0.00 in /  0 mm 0 W/m2
18:05 39.4 °F /  4.1 °C 37.3 °F /  2.9 °C 30.30 in /  1026 hPa East 5.0 mph /  8 km/h 20.0 mph /  32.2 km/h 92 % 0.00 in /  0 mm 0 W/m2
18:15 39.4 °F /  4.1 °C 37.3 °F /  2.9 °C 30.30 in /  1026 hPa ENE 3.0 mph /  4.8 km/h 20.0 mph /  32.2 km/h 92 % 0.00 in /  0 mm 0 W/m2
18:20 39.3 °F /  4.1 °C 37.2 °F /  2.9 °C 30.30 in /  1026 hPa NE 3.0 mph /  4.8 km/h 20.0 mph /  32.2 km/h 92 % 0.00 in /  0 mm 0 W/m2
18:25 39.3 °F /  4.1 °C 37.2 °F /  2.9 °C 30.30 in /  1026 hPa ESE 5.0 mph /  8 km/h 20.0 mph /  32.2 km/h 92 % 0.00 in /  0 mm 0 W/m2
18:35 39.2 °F /  4 °C 37.1 °F /  2.8 °C 30.30 in /  1026 hPa ENE 5.0 mph /  8 km/h 7.0 mph /  11.3 km/h 92 % 0.00 in /  0 mm 0 W/m2
18:40 39.2 °F /  4 °C 37.1 °F /  2.8 °C 30.30 in /  1026 hPa ENE 5.0 mph /  8 km/h 20.0 mph /  32.2 km/h 92 % 0.00 in /  0 mm 0 W/m2
18:45 39.2 °F /  4 °C 37.1 °F /  2.8 °C 30.30 in /  1026 hPa ENE 5.0 mph /  8 km/h 20.0 mph /  32.2 km/h 92 % 0.00 in /  0 mm 0 W/m2
18:55 39.3 °F /  4.1 °C 37.2 °F /  2.9 °C 30.30 in /  1026 hPa East 4.0 mph /  6.4 km/h 20.0 mph /  32.2 km/h 92 % 0.00 in /  0 mm 0 W/m2
19:05 39.2 °F /  4 °C 37.1 °F /  2.8 °C 30.30 in /  1026 hPa ESE 6.0 mph /  9.7 km/h 20.0 mph /  32.2 km/h 92 % 0.00 in /  0 mm 0 W/m2
19:10 39.2 °F /  4 °C 37.1 °F /  2.8 °C 30.30 in /  1026 hPa NE 5.0 mph /  8 km/h 5.0 mph /  8 km/h 92 % 0.00 in /  0 mm 0 W/m2
19:15 39.2 °F /  4 °C 37.1 °F /  2.8 °C 30.30 in /  1026 hPa ENE 6.0 mph /  9.7 km/h 6.0 mph /  9.7 km/h 92 % 0.00 in /  0 mm 0 W/m2
19:20 39.2 °F /  4 °C 37.1 °F /  2.8 °C 30.30 in /  1026 hPa East 5.0 mph /  8 km/h 5.0 mph /  8 km/h 92 % 0.00 in /  0 mm 0 W/m2
19:30 39.3 °F /  4.1 °C 36.9 °F /  2.7 °C 30.29 in /  1025.6 hPa SSE 4.0 mph /  6.4 km/h 20.0 mph /  32.2 km/h 91 % 0.00 in /  0 mm 0 W/m2
19:35 39.3 °F /  4.1 °C 36.9 °F /  2.7 °C 30.29 in /  1025.6 hPa ENE 5.0 mph /  8 km/h 20.0 mph /  32.2 km/h 91 % 0.00 in /  0 mm 0 W/m2
19:40 39.3 °F /  4.1 °C 36.9 °F /  2.7 °C 30.30 in /  1026 hPa East 5.0 mph /  8 km/h 20.0 mph /  32.2 km/h 91 % 0.00 in /  0 mm 0 W/m2
19:50 39.2 °F /  4 °C 37.1 °F /  2.8 °C 30.30 in /  1026 hPa East 6.0 mph /  9.7 km/h 20.0 mph /  32.2 km/h 92 % 0.00 in /  0 mm 0 W/m2
19:55 39.2 °F /  4 °C 36.8 °F /  2.7 °C 30.30 in /  1026 hPa ENE 5.0 mph /  8 km/h 20.0 mph /  32.2 km/h 91 % 0.00 in /  0 mm 0 W/m2
20:00 39.3 °F /  4.1 °C 37.2 °F /  2.9 °C 30.30 in /  1026 hPa East 5.0 mph /  8 km/h 5.0 mph /  8 km/h 92 % 0.00 in /  0 mm 0 W/m2
20:10 39.3 °F /  4.1 °C 37.2 °F /  2.9 °C 30.30 in /  1026 hPa East 4.0 mph /  6.4 km/h 4.0 mph /  6.4 km/h 92 % 0.00 in /  0 mm 0 W/m2
20:15 39.3 °F /  4.1 °C 37.2 °F /  2.9 °C 30.30 in /  1026 hPa ENE 4.0 mph /  6.4 km/h 6.0 mph /  9.7 km/h 92 % 0.00 in /  0 mm 0 W/m2
20:25 39.3 °F /  4.1 °C 37.2 °F /  2.9 °C 30.30 in /  1026 hPa NE 4.0 mph /  6.4 km/h 20.0 mph /  32.2 km/h 92 % 0.00 in /  0 mm 0 W/m2
20:30 39.3 °F /  4.1 °C 37.2 °F /  2.9 °C 30.30 in /  1026 hPa ESE 5.0 mph /  8 km/h 5.0 mph /  8 km/h 92 % 0.00 in /  0 mm 0 W/m2
20:35 39.3 °F /  4.1 °C 37.2 °F /  2.9 °C 30.30 in /  1026 hPa ESE 5.0 mph /  8 km/h 20.0 mph /  32.2 km/h 92 % 0.00 in /  0 mm 0 W/m2
20:45 39.3 °F /  4.1 °C 37.2 °F /  2.9 °C 30.30 in /  1026 hPa ENE 4.0 mph /  6.4 km/h 7.0 mph /  11.3 km/h 92 % 0.00 in /  0 mm 0 W/m2
20:50 39.3 °F /  4.1 °C 36.9 °F /  2.7 °C 30.30 in /  1026 hPa ENE 5.0 mph /  8 km/h 5.0 mph /  8 km/h 91 % 0.00 in /  0 mm 0 W/m2
21:00 39.3 °F /  4.1 °C 36.9 °F /  2.7 °C 30.30 in /  1026 hPa East 6.0 mph /  9.7 km/h 20.0 mph /  32.2 km/h 91 % 0.00 in /  0 mm 0 W/m2
21:05 39.3 °F /  4.1 °C 36.9 °F /  2.7 °C 30.30 in /  1026 hPa East 6.0 mph /  9.7 km/h 20.0 mph /  32.2 km/h 91 % 0.00 in /  0 mm 0 W/m2
21:10 39.3 °F /  4.1 °C 36.9 °F /  2.7 °C 30.30 in /  1026 hPa ESE 5.0 mph /  8 km/h 5.0 mph /  8 km/h 91 % 0.00 in /  0 mm 0 W/m2
21:15 39.3 °F /  4.1 °C 36.9 °F /  2.7 °C 30.30 in /  1026 hPa East 5.0 mph /  8 km/h 20.0 mph /  32.2 km/h 91 % 0.00 in /  0 mm 0 W/m2
21:20 39.3 °F /  4.1 °C 36.9 °F /  2.7 °C 30.30 in /  1026 hPa NE 5.0 mph /  8 km/h 5.0 mph /  8 km/h 91 % 0.00 in /  0 mm 0 W/m2
21:30 39.3 °F /  4.1 °C 36.9 °F /  2.7 °C 30.30 in /  1026 hPa ESE 5.0 mph /  8 km/h 5.0 mph /  8 km/h 91 % 0.00 in /  0 mm 0 W/m2
21:35 39.3 °F /  4.1 °C 36.9 °F /  2.7 °C 30.30 in /  1026 hPa ESE 5.0 mph /  8 km/h 8.0 mph /  12.9 km/h 91 % 0.00 in /  0 mm 0 W/m2
21:40 39.3 °F /  4.1 °C 36.9 °F /  2.7 °C 30.30 in /  1026 hPa East 5.0 mph /  8 km/h 5.0 mph /  8 km/h 91 % 0.00 in /  0 mm 0 W/m2
21:50 39.3 °F /  4.1 °C 36.9 °F /  2.7 °C 30.30 in /  1026 hPa ENE 3.0 mph /  4.8 km/h 20.0 mph /  32.2 km/h 91 % 0.00 in /  0 mm 0 W/m2
21:55 39.3 °F /  4.1 °C 36.9 °F /  2.7 °C 30.30 in /  1026 hPa SE 4.0 mph /  6.4 km/h 20.0 mph /  32.2 km/h 91 % 0.00 in /  0 mm 0 W/m2
22:00 39.3 °F /  4.1 °C 36.9 °F /  2.7 °C 30.30 in /  1026 hPa ENE 5.0 mph /  8 km/h 5.0 mph /  8 km/h 91 % 0.00 in /  0 mm 0 W/m2
22:10 39.3 °F /  4.1 °C 36.9 °F /  2.7 °C 30.29 in /  1025.6 hPa East 4.0 mph /  6.4 km/h 20.0 mph /  32.2 km/h 91 % 0.00 in /  0 mm 0 W/m2
22:15 39.3 °F /  4.1 °C 36.9 °F /  2.7 °C 30.29 in /  1025.6 hPa East 4.0 mph /  6.4 km/h 20.0 mph /  32.2 km/h 91 % 0.00 in /  0 mm 0 W/m2
22:20 39.3 °F /  4.1 °C 36.9 °F /  2.7 °C 30.29 in /  1025.6 hPa ENE 4.0 mph /  6.4 km/h 20.0 mph /  32.2 km/h 91 % 0.00 in /  0 mm 0 W/m2
22:25 39.3 °F /  4.1 °C 36.9 °F /  2.7 °C 30.29 in /  1025.6 hPa East 4.0 mph /  6.4 km/h 20.0 mph /  32.2 km/h 91 % 0.00 in /  0 mm 0 W/m2
22:30 39.2 °F /  4 °C 36.8 °F /  2.7 °C 30.29 in /  1025.6 hPa NE 5.0 mph /  8 km/h 20.0 mph /  32.2 km/h 91 % 0.00 in /  0 mm 0 W/m2
22:40 39.1 °F /  3.9 °C 36.7 °F /  2.6 °C 30.29 in /  1025.6 hPa ENE 5.0 mph /  8 km/h 20.0 mph /  32.2 km/h 91 % 0.00 in /  0 mm 0 W/m2
22:45 39.0 °F /  3.9 °C 36.9 °F /  2.7 °C 30.29 in /  1025.6 hPa ENE 5.0 mph /  8 km/h 20.0 mph /  32.2 km/h 92 % 0.00 in /  0 mm 0 W/m2
22:50 39.0 °F /  3.9 °C 36.9 °F /  2.7 °C 30.29 in /  1025.6 hPa ENE 6.0 mph /  9.7 km/h 20.0 mph /  32.2 km/h 92 % 0.00 in /  0 mm 0 W/m2
22:55 38.9 °F /  3.8 °C 36.8 °F /  2.7 °C 30.29 in /  1025.6 hPa NE 5.0 mph /  8 km/h 20.0 mph /  32.2 km/h 92 % 0.00 in /  0 mm 0 W/m2
23:00 38.8 °F /  3.8 °C 36.7 °F /  2.6 °C 30.29 in /  1025.6 hPa ENE 4.0 mph /  6.4 km/h 4.0 mph /  6.4 km/h 92 % 0.00 in /  0 mm 0 W/m2
23:10 38.5 °F /  3.6 °C 36.4 °F /  2.4 °C 30.29 in /  1025.6 hPa NE 4.0 mph /  6.4 km/h 20.0 mph /  32.2 km/h 92 % 0.00 in /  0 mm 0 W/m2
23:15 38.5 °F /  3.6 °C 36.4 °F /  2.4 °C 30.28 in /  1025.3 hPa East 3.0 mph /  4.8 km/h 20.0 mph /  32.2 km/h 92 % 0.00 in /  0 mm 0 W/m2
23:25 38.2 °F /  3.4 °C 36.1 °F /  2.3 °C 30.28 in /  1025.3 hPa NE 4.0 mph /  6.4 km/h 20.0 mph /  32.2 km/h 92 % 0.00 in /  0 mm 0 W/m2
23:30 38.1 °F /  3.4 °C 36.0 °F /  2.2 °C 30.28 in /  1025.3 hPa ENE 5.0 mph /  8 km/h 5.0 mph /  8 km/h 92 % 0.00 in /  0 mm 0 W/m2
23:35 38.0 °F /  3.3 °C 36.2 °F /  2.3 °C 30.28 in /  1025.3 hPa ENE 6.0 mph /  9.7 km/h 6.0 mph /  9.7 km/h 93 % 0.00 in /  0 mm 0 W/m2
23:40 37.8 °F /  3.2 °C 36.0 °F /  2.2 °C 30.28 in /  1025.3 hPa ENE 5.0 mph /  8 km/h 5.0 mph /  8 km/h 93 % 0.00 in /  0 mm 0 W/m2
23:50 37.5 °F /  3.1 °C 35.7 °F /  2.1 °C 30.28 in /  1025.3 hPa ENE 4.0 mph /  6.4 km/h 20.0 mph /  32.2 km/h 93 % 0.00 in /  0 mm 0 W/m2
23:55 37.4 °F /  3 °C 35.6 °F /  2 °C 30.28 in /  1025.3 hPa ENE 4.0 mph /  6.4 km/h 20.0 mph /  32.2 km/h 93 % 0.00 in /  0 mm 0 W/m2
Delerius-Weather
Compliments of Weather Underground - 2 mb

Data updates at regular intervals.